Time;durP1;ratioP1;P1;durP2;ratioP2;P2;SDS_P1;SDS_P2;PMS_P1;PMS_P2;Temp;Humidity;BMP_temperature;BMP_pressure;BME280_temperature;BME280_humidity;BME280_pressure;Samples;Min_cycle;Max_cycle;Signal;HPM_P1;HPM_P2
2021/07/28 00:00:37;;;;;;;5.20;2.40;;;18.00;99.90;;;;;;4392115;32;20066;-63
2021/07/28 00:03:04;;;;;;;4.37;2.80;;;17.90;99.90;;;;;;4367260;32;20066;-63
2021/07/28 00:05:30;;;;;;;4.32;2.42;;;17.90;99.90;;;;;;4354954;32;20078;-63
2021/07/28 00:07:56;;;;;;;3.60;2.30;;;17.90;99.90;;;;;;4354438;32;20086;-63
2021/07/28 00:10:22;;;;;;;3.10;2.35;;;17.90;99.90;;;;;;4392000;32;20073;-63
2021/07/28 00:12:48;;;;;;;3.47;2.30;;;17.90;99.90;;;;;;4379330;32;20122;-62
2021/07/28 00:15:14;;;;;;;5.40;2.33;;;17.90;99.90;;;;;;4366992;32;20081;-64
2021/07/28 00:17:50;;;;;;;3.67;2.10;;;17.80;99.90;;;;;;4393051;32;20077;-64
2021/07/28 00:20:27;;;;;;;3.17;2.30;;;17.70;99.90;;;;;;4392872;32;20514;-64
2021/07/28 00:25:38;;;;;;;3.25;2.25;;;17.70;99.90;;;;;;4381316;32;20097;-65
2021/07/28 00:28:04;;;;;;;5.12;2.42;;;17.70;99.90;;;;;;4366535;32;20169;-64
2021/07/28 00:30:31;;;;;;;2.72;2.20;;;17.70;99.90;;;;;;4366467;32;20524;-63
2021/07/28 00:32:58;;;;;;;3.55;2.35;;;17.70;99.90;;;;;;4378754;32;20089;-64
2021/07/28 00:35:24;;;;;;;3.55;2.60;;;17.70;99.90;;;;;;4366476;32;20084;-64
2021/07/28 00:37:51;;;;;;;3.22;2.22;;;17.70;99.90;;;;;;4392988;32;20070;-64
2021/07/28 00:40:17;;;;;;;2.55;2.10;;;17.70;99.90;;;;;;4393004;32;20090;-64
2021/07/28 00:42:43;;;;;;;2.97;2.25;;;17.70;99.90;;;;;;4379244;32;20077;-64
2021/07/28 00:45:10;;;;;;;2.95;2.20;;;17.80;99.90;;;;;;4378733;32;20068;-64
2021/07/28 00:47:36;;;;;;;4.43;1.98;;;17.70;99.90;;;;;;4391437;32;20467;-63
2021/07/28 00:50:04;;;;;;;3.42;2.17;;;17.80;99.90;;;;;;4378420;32;20540;-64
2021/07/28 00:52:32;;;;;;;5.30;2.40;;;17.80;99.90;;;;;;4378594;32;20065;-63
2021/07/28 00:54:58;;;;;;;3.42;2.20;;;17.70;99.90;;;;;;4379113;32;20086;-64
2021/07/28 00:57:24;;;;;;;3.92;2.37;;;17.80;99.90;;;;;;4378242;32;20531;-64
2021/07/28 00:59:51;;;;;;;3.65;2.17;;;17.80;99.90;;;;;;4391026;32;20508;-63
2021/07/28 01:02:17;;;;;;;2.75;2.25;;;17.90;99.90;;;;;;4365751;32;20462;-63
2021/07/28 01:04:44;;;;;;;2.78;2.10;;;17.90;99.90;;;;;;4403738;32;20089;-63
2021/07/28 01:07:10;;;;;;;2.35;1.90;;;17.90;99.20;;;;;;4392574;32;20125;-64
2021/07/28 01:09:36;;;;;;;3.22;2.35;;;17.80;99.90;;;;;;4391145;32;20071;-64
2021/07/28 01:12:04;;;;;;;2.87;2.00;;;17.90;99.90;;;;;;4391082;32;20073;-64
2021/07/28 01:14:31;;;;;;;3.87;2.12;;;17.90;98.70;;;;;;4378647;32;20521;-64
2021/07/28 01:16:57;;;;;;;4.22;2.20;;;18.00;97.70;;;;;;4378704;32;20097;-64
2021/07/28 01:19:28;;;;;;;3.50;2.20;;;18.00;97.80;;;;;;4378159;32;20062;-64
2021/07/28 01:21:54;;;;;;;4.72;2.17;;;18.00;96.80;;;;;;4378683;32;20077;-64
2021/07/28 01:24:20;;;;;;;2.83;2.03;;;17.90;96.90;;;;;;4365925;32;20085;-64
2021/07/28 01:26:46;;;;;;;3.42;2.40;;;18.00;97.00;;;;;;4365825;32;20054;-64
2021/07/28 01:29:13;;;;;;;2.90;2.10;;;17.90;97.70;;;;;;4366086;32;20087;-63
2021/07/28 01:31:41;;;;;;;4.22;2.42;;;17.90;96.60;;;;;;4377733;32;20057;-65
2021/07/28 01:34:08;;;;;;;4.53;2.50;;;17.90;96.70;;;;;;4378270;32;20081;-64
2021/07/28 01:36:34;;;;;;;4.60;2.50;;;18.00;96.90;;;;;;4391202;32;20078;-63
2021/07/28 01:39:02;;;;;;;4.45;2.47;;;18.00;98.30;;;;;;4365902;32;20090;-64
2021/07/28 01:41:28;;;;;;;6.62;2.60;;;18.00;96.80;;;;;;4378051;32;20181;-64
2021/07/28 01:43:54;;;;;;;5.35;2.78;;;18.20;95.00;;;;;;4378142;32;20070;-63
2021/07/28 01:46:21;;;;;;;3.62;2.55;;;18.30;94.30;;;;;;4390383;32;20085;-63
2021/07/28 01:48:47;;;;;;;6.87;2.78;;;18.20;97.10;;;;;;4365202;32;20492;-63
2021/07/28 01:51:13;;;;;;;4.68;2.20;;;18.20;95.10;;;;;;4381105;32;20092;-65
2021/07/28 01:56:15;;;;;;;5.57;3.35;;;18.40;93.50;;;;;;3857564;37;20050;-62
2021/07/28 01:58:46;;;;;;;6.30;3.05;;;18.50;90.10;;;;;;4405848;32;20089;-64
2021/07/28 02:01:12;;;;;;;6.43;2.85;;;18.60;87.70;;;;;;4382524;32;20084;-64
2021/07/28 02:03:38;;;;;;;4.62;2.80;;;18.40;87.30;;;;;;4380641;32;20087;-63
2021/07/28 02:06:07;;;;;;;4.12;2.97;;;18.40;86.30;;;;;;4380538;32;20105;-63
2021/07/28 02:08:33;;;;;;;4.80;2.62;;;18.50;86.20;;;;;;4380818;32;20088;-63
2021/07/28 02:10:59;;;;;;;4.80;2.80;;;18.40;86.60;;;;;;4418454;32;20152;-64
2021/07/28 02:13:26;;;;;;;5.93;2.87;;;18.50;85.10;;;;;;4417921;32;20162;-65
2021/07/28 02:15:52;;;;;;;5.03;2.40;;;18.70;82.80;;;;;;4405695;32;20077;-64
2021/07/28 02:18:18;;;;;;;4.40;2.40;;;18.70;82.20;;;;;;4392618;32;20536;-65
2021/07/28 02:20:44;;;;;;;3.47;2.45;;;18.90;78.20;;;;;;4405046;32;20173;-64
2021/07/28 02:23:10;;;;;;;4.05;2.20;;;18.90;79.00;;;;;;4405200;32;20459;-63
2021/07/28 02:25:37;;;;;;;4.22;2.47;;;18.80;78.10;;;;;;4392818;32;20070;-64
2021/07/28 02:28:03;;;;;;;6.15;2.35;;;18.80;78.30;;;;;;4418138;32;20065;-65
2021/07/28 02:30:29;;;;;;;4.53;2.30;;;18.90;76.40;;;;;;4406238;32;20084;-63
2021/07/28 02:32:56;;;;;;;4.45;2.30;;;18.90;75.90;;;;;;4405744;32;20522;-64
2021/07/28 02:35:22;;;;;;;5.03;1.90;;;19.00;73.20;;;;;;4417918;32;20077;-63
2021/07/28 02:37:48;;;;;;;7.47;2.78;;;19.00;73.00;;;;;;4393022;32;20081;-63
2021/07/28 02:40:19;;;;;;;2.47;2.05;;;19.10;73.20;;;;;;4419369;32;20138;-63
2021/07/28 02:42:45;;;;;;;5.12;2.37;;;19.10;73.60;;;;;;4380996;32;20238;-64
2021/07/28 02:45:12;;;;;;;4.55;2.12;;;19.10;72.10;;;;;;4392491;32;20087;-64
2021/07/28 02:47:38;;;;;;;2.28;1.90;;;19.10;70.90;;;;;;4428870;32;20491;-64
2021/07/28 02:50:05;;;;;;;6.25;2.47;;;19.20;69.90;;;;;;4392714;32;20084;-63
2021/07/28 02:52:31;;;;;;;9.07;2.70;;;19.20;72.20;;;;;;4392567;32;20171;-63
2021/07/28 02:55:03;;;;;;;7.87;2.60;;;19.10;73.40;;;;;;4404963;32;20084;-64
2021/07/28 02:57:30;;;;;;;5.22;2.28;;;19.20;73.00;;;;;;4405383;32;20115;-64
2021/07/28 02:59:56;;;;;;;8.25;2.75;;;19.20;73.40;;;;;;4417454;32;20077;-62
2021/07/28 03:02:22;;;;;;;5.75;2.35;;;19.30;74.50;;;;;;4417445;32;20073;-64
2021/07/28 03:04:48;;;;;;;5.47;2.45;;;19.20;73.50;;;;;;4405527;32;20096;-65
2021/07/28 03:07:14;;;;;;;7.37;2.22;;;19.10;75.20;;;;;;4396161;32;20070;-63
2021/07/28 03:09:40;;;;;;;6.87;2.47;;;19.10;72.90;;;;;;4407153;32;20088;-65
2021/07/28 03:12:07;;;;;;;4.60;2.20;;;19.20;73.50;;;;;;4394265;32;20456;-63
2021/07/28 03:14:33;;;;;;;4.32;2.45;;;19.20;73.50;;;;;;4382347;32;20621;-63
2021/07/28 03:16:59;;;;;;;4.87;2.72;;;19.30;71.00;;;;;;4407071;32;20076;-62
2021/07/28 03:19:26;;;;;;;3.95;2.37;;;19.30;70.60;;;;;;4407080;32;20077;-65
2021/07/28 03:21:52;;;;;;;5.25;2.22;;;19.40;70.90;;;;;;4369408;32;20084;-63
2021/07/28 03:24:18;;;;;;;4.47;2.53;;;19.40;71.80;;;;;;4394161;32;20101;-63
2021/07/28 03:26:45;;;;;;;7.07;3.20;;;19.50;73.90;;;;;;4382151;32;20065;-63
2021/07/28 03:29:12;;;;;;;5.30;2.67;;;19.50;76.10;;;;;;4394269;32;20068;-63
2021/07/28 03:31:39;;;;;;;6.72;3.00;;;19.40;78.10;;;;;;4370019;32;20088;-64
2021/07/28 03:34:05;;;;;;;8.55;3.22;;;19.50;78.60;;;;;;4394171;32;20079;-64
2021/07/28 03:36:31;;;;;;;4.60;2.87;;;19.40;79.50;;;;;;4369493;32;20113;-64
2021/07/28 03:38:57;;;;;;;8.30;3.10;;;19.50;83.10;;;;;;4394367;32;20443;-64
2021/07/28 03:41:23;;;;;;;9.23;3.10;;;19.50;85.80;;;;;;4381769;32;20084;-63
2021/07/28 03:43:49;;;;;;;5.43;2.80;;;19.50;84.90;;;;;;4408348;32;20471;-63
2021/07/28 03:46:15;;;;;;;6.72;3.00;;;19.70;83.10;;;;;;4407795;32;20455;-63
2021/07/28 03:48:42;;;;;;;5.70;2.83;;;19.70;84.00;;;;;;4406618;32;20065;-63
2021/07/28 03:51:08;;;;;;;5.78;2.80;;;19.80;81.50;;;;;;4406367;32;20077;-64
2021/07/28 03:53:35;;;;;;;7.22;2.90;;;19.90;79.70;;;;;;4406348;32;20452;-64
2021/07/28 03:56:01;;;;;;;5.37;3.10;;;20.00;76.90;;;;;;4407681;32;20535;-64
2021/07/28 03:58:27;;;;;;;4.05;2.78;;;20.00;77.30;;;;;;4394148;32;20085;-64
2021/07/28 04:00:53;;;;;;;5.28;2.33;;;20.20;75.00;;;;;;4368978;32;20177;-64
2021/07/28 04:03:19;;;;;;;4.78;2.42;;;20.20;75.40;;;;;;4381738;32;20089;-63
2021/07/28 04:05:46;;;;;;;5.47;2.67;;;20.40;72.20;;;;;;4381099;32;20097;-65
2021/07/28 04:08:12;;;;;;;5.68;2.60;;;20.50;71.80;;;;;;4393578;32;20536;-64
2021/07/28 04:10:38;;;;;;;5.68;2.55;;;20.70;68.30;;;;;;4406422;32;20077;-63
2021/07/28 04:13:04;;;;;;;8.15;2.72;;;20.70;70.40;;;;;;4406484;32;20093;-63
2021/07/28 04:15:30;;;;;;;5.65;3.03;;;20.60;69.40;;;;;;4369040;32;20066;-64
2021/07/28 04:17:57;;;;;;;5.93;2.72;;;20.70;67.70;;;;;;4380830;32;20081;-64
2021/07/28 04:20:23;;;;;;;5.43;2.85;;;20.80;68.50;;;;;;4393495;32;20181;-64
2021/07/28 04:22:49;;;;;;;6.95;3.00;;;20.80;68.90;;;;;;4394027;32;20084;-64
2021/07/28 04:25:15;;;;;;;4.57;2.42;;;20.90;65.90;;;;;;4406317;32;20077;-63
2021/07/28 04:27:41;;;;;;;7.03;3.20;;;21.00;63.20;;;;;;4406488;32;20078;-64
2021/07/28 04:30:08;;;;;;;6.35;2.40;;;21.00;59.00;;;;;;4393315;32;20078;-65
2021/07/28 04:32:34;;;;;;;3.90;2.30;;;21.20;55.50;;;;;;4393569;32;20110;-64
2021/07/28 04:35:00;;;;;;;2.58;1.80;;;21.30;57.40;;;;;;4393365;32;20069;-64
2021/07/28 04:37:27;;;;;;;4.57;2.12;;;21.30;52.50;;;;;;4407461;32;20486;-64
2021/07/28 04:39:53;;;;;;;3.85;2.10;;;21.40;53.50;;;;;;4381136;32;20069;-64
2021/07/28 04:42:19;;;;;;;3.72;1.95;;;21.70;53.00;;;;;;4406579;32;20097;-64
2021/07/28 04:44:45;;;;;;;3.42;2.20;;;24.00;44.10;;;;;;4381564;32;20078;-64
2021/07/28 04:47:11;;;;;;;4.57;2.30;;;24.90;40.80;;;;;;4407348;32;20081;-63
2021/07/28 04:49:37;;;;;;;3.60;2.10;;;24.90;41.00;;;;;;4405378;32;20074;-64
2021/07/28 04:52:23;;;;;;;4.32;2.30;;;25.20;39.50;;;;;;3831675;37;20055;-63
2021/07/28 04:54:49;;;;;;;6.55;2.33;;;25.90;37.30;;;;;;4391296;32;20081;-64
2021/07/28 04:57:15;;;;;;;3.15;2.20;;;25.20;37.70;;;;;;4365166;32;20523;-63
2021/07/28 04:59:41;;;;;;;3.28;2.05;;;26.00;37.40;;;;;;4365326;32;20157;-64
2021/07/28 05:02:07;;;;;;;2.58;1.60;;;25.60;37.30;;;;;;4390318;32;20065;-64
2021/07/28 05:04:34;;;;;;;3.83;1.85;;;25.60;36.70;;;;;;4390595;32;20082;-64
2021/07/28 05:07:00;;;;;;;3.95;2.10;;;26.50;36.40;;;;;;4390586;32;20072;-63
2021/07/28 05:09:26;;;;;;;2.75;1.92;;;26.10;36.30;;;;;;4390435;32;20077;-64
2021/07/28 05:11:52;;;;;;;3.00;1.98;;;26.40;34.70;;;;;;4365221;32;20092;-64
2021/07/28 05:14:18;;;;;;;3.80;2.10;;;26.70;34.80;;;;;;4390701;32;20069;-63
2021/07/28 05:16:45;;;;;;;3.15;2.00;;;27.00;33.70;;;;;;4377848;32;20070;-64
2021/07/28 05:19:11;;;;;;;3.20;1.92;;;26.60;35.00;;;;;;4404743;32;20136;-62
2021/07/28 05:21:38;;;;;;;2.80;1.98;;;26.90;35.00;;;;;;4353086;32;20073;-63
2021/07/28 05:24:04;;;;;;;2.80;1.48;;;26.60;32.10;;;;;;4365239;32;20073;-65
2021/07/28 05:26:30;;;;;;;4.25;2.25;;;26.60;33.40;;;;;;4389968;32;20085;-64
2021/07/28 05:28:57;;;;;;;2.67;2.00;;;26.30;33.40;;;;;;4390088;32;20070;-64
2021/07/28 05:31:23;;;;;;;2.90;2.00;;;26.80;32.40;;;;;;4377179;32;20504;-64
2021/07/28 05:33:49;;;;;;;4.10;2.50;;;25.80;32.90;;;;;;4378147;32;20074;-64
2021/07/28 05:36:15;;;;;;;3.25;2.00;;;26.10;33.70;;;;;;4377284;32;20077;-64
2021/07/28 05:38:41;;;;;;;4.32;2.20;;;26.40;32.10;;;;;;4389846;32;20082;-63
2021/07/28 05:41:07;;;;;;;3.65;2.05;;;27.10;32.30;;;;;;4377425;32;20079;-63
2021/07/28 05:43:33;;;;;;;1.85;1.67;;;26.30;30.70;;;;;;4390061;32;20068;-64
2021/07/28 05:46:00;;;;;;;4.05;2.55;;;27.30;31.40;;;;;;4401425;32;20089;-64
2021/07/28 05:48:31;;;;;;;2.65;2.00;;;27.50;29.70;;;;;;4375491;32;20085;-63
2021/07/28 05:50:59;;;;;;;3.67;1.77;;;27.80;30.40;;;;;;4360002;32;20146;-64
2021/07/28 05:53:25;;;;;;;7.07;2.60;;;27.20;30.80;;;;;;4347509;32;20489;-64
2021/07/28 05:55:53;;;;;;;5.62;2.30;;;27.00;31.20;;;;;;4359790;32;20554;-64
2021/07/28 05:58:20;;;;;;;4.28;1.95;;;26.70;30.90;;;;;;4359895;32;20078;-64
2021/07/28 06:00:47;;;;;;;3.53;2.17;;;27.40;31.00;;;;;;4373347;32;20066;-63
2021/07/28 06:03:13;;;;;;;4.78;2.25;;;26.40;32.10;;;;;;4339275;32;20224;-62
2021/07/28 06:05:40;;;;;;;8.30;2.40;;;26.60;32.30;;;;;;4363364;32;20082;-65
2021/07/28 06:08:06;;;;;;;5.70;2.50;;;27.60;30.00;;;;;;4363311;32;20094;-64
2021/07/28 06:10:32;;;;;;;2.62;2.05;;;26.90;32.20;;;;;;4349266;32;20089;-64
2021/07/28 06:13:00;;;;;;;5.47;2.40;;;26.80;31.70;;;;;;4337705;32;20159;-64
2021/07/28 06:15:26;;;;;;;4.25;2.35;;;27.70;32.20;;;;;;4337351;32;20090;-64
2021/07/28 06:17:52;;;;;;;4.12;2.55;;;27.70;31.10;;;;;;4349575;32;20081;-63
2021/07/28 06:20:19;;;;;;;3.62;2.45;;;26.00;34.30;;;;;;4363169;32;20531;-63
2021/07/28 06:22:45;;;;;;;3.28;2.35;;;25.90;35.60;;;;;;4337764;32;20075;-64
2021/07/28 06:25:12;;;;;;;5.15;2.20;;;25.90;35.60;;;;;;4337286;32;20094;-64
2021/07/28 06:27:38;;;;;;;3.53;2.17;;;26.50;32.00;;;;;;4349355;32;20082;-64
2021/07/28 06:30:05;;;;;;;3.25;2.50;;;26.50;33.60;;;;;;4349306;32;20597;-63
2021/07/28 06:32:31;;;;;;;14.85;3.70;;;25.20;36.10;;;;;;4337091;32;20074;-64
2021/07/28 06:34:58;;;;;;;8.63;2.45;;;25.00;38.70;;;;;;4336923;32;20074;-64
2021/07/28 06:37:24;;;;;;;5.00;2.17;;;25.70;37.50;;;;;;4337206;32;20497;-63
2021/07/28 06:39:50;;;;;;;4.07;2.10;;;25.10;38.20;;;;;;4349194;32;20085;-63
2021/07/28 06:42:16;;;;;;;3.60;2.45;;;25.60;38.00;;;;;;4331406;32;20106;-67
2021/07/28 06:44:42;;;;;;;2.83;1.92;;;25.20;39.20;;;;;;4349893;32;20078;-72
2021/07/28 06:47:08;;;;;;;4.50;2.42;;;24.70;40.20;;;;;;4351255;32;20083;-74
2021/07/28 06:49:34;;;;;;;6.15;2.15;;;24.70;40.30;;;;;;4335540;32;20063;-72
2021/07/28 06:52:01;;;;;;;3.67;2.12;;;24.70;39.30;;;;;;4339701;33;20075;-71
2021/07/28 06:54:27;;;;;;;5.65;2.15;;;25.30;38.30;;;;;;4349751;32;20150;-70
2021/07/28 06:56:53;;;;;;;4.60;2.35;;;25.00;39.10;;;;;;4332094;32;20071;-70
2021/07/28 06:59:19;;;;;;;4.43;2.15;;;25.60;38.50;;;;;;4348829;32;20066;-72
2021/07/28 07:01:46;;;;;;;4.57;1.80;;;25.20;38.70;;;;;;4348746;32;20102;-73
2021/07/28 07:04:12;;;;;;;3.45;2.12;;;25.10;39.20;;;;;;4336956;32;20097;-74
2021/07/28 07:06:39;;;;;;;4.00;2.40;;;25.10;38.80;;;;;;4324441;32;20090;-74
2021/07/28 07:09:05;;;;;;;9.48;2.55;;;25.60;38.20;;;;;;4336118;32;20597;-73
2021/07/28 07:11:31;;;;;;;7.20;2.55;;;25.50;37.10;;;;;;4299792;32;20543;-72
2021/07/28 07:13:57;;;;;;;4.30;2.40;;;24.90;39.70;;;;;;4347881;32;20177;-71
2021/07/28 07:16:24;;;;;;;11.45;3.78;;;25.60;39.10;;;;;;4328111;33;20087;-73
2021/07/28 07:18:50;;;;;;;4.93;2.10;;;25.70;38.60;;;;;;4320113;33;20089;-72
2021/07/28 07:21:16;;;;;;;3.97;2.17;;;25.60;39.10;;;;;;4324210;32;20089;-72
2021/07/28 07:23:42;;;;;;;4.22;2.30;;;25.50;40.10;;;;;;4326440;32;20121;-77
2021/07/28 07:26:08;;;;;;;13.85;4.50;;;25.70;39.60;;;;;;4339427;32;20891;-77
2021/07/28 07:28:35;;;;;;;2.92;2.37;;;25.40;39.20;;;;;;4332038;32;20167;-72
2021/07/28 07:31:09;;;;;;;4.55;2.00;;;25.10;38.90;;;;;;4311836;32;20150;-74
2021/07/28 07:36:10;;;;;;;9.43;3.53;;;25.30;39.00;;;;;;4323503;32;20075;-73
2021/07/28 07:38:37;;;;;;;3.58;2.10;;;25.40;39.00;;;;;;4316679;32;20085;-76
2021/07/28 07:41:04;;;;;;;4.43;2.20;;;25.60;38.50;;;;;;4326897;32;20067;-76
2021/07/28 07:43:31;;;;;;;3.50;2.20;;;25.30;38.80;;;;;;4328133;32;20688;-77
2021/07/28 07:45:57;;;;;;;5.68;2.37;;;25.60;39.10;;;;;;4321206;32;20086;-77
2021/07/28 07:48:24;;;;;;;3.37;2.17;;;26.00;38.50;;;;;;4320187;32;20089;-74
2021/07/28 07:50:50;;;;;;;3.05;1.87;;;25.50;38.90;;;;;;4322767;32;20109;-75
2021/07/28 07:53:16;;;;;;;5.87;2.42;;;25.60;38.80;;;;;;4359135;32;20560;-77
2021/07/28 07:55:43;;;;;;;8.27;2.75;;;26.00;38.50;;;;;;4329226;32;20079;-75
2021/07/28 07:58:09;;;;;;;4.93;2.10;;;26.20;38.00;;;;;;4343910;32;20142;-74
2021/07/28 08:00:35;;;;;;;4.25;2.17;;;25.80;38.00;;;;;;4342850;33;20063;-75
2021/07/28 08:03:01;;;;;;;7.22;2.50;;;25.20;39.80;;;;;;4346416;32;20089;-74
2021/07/28 08:05:28;;;;;;;5.37;2.62;;;25.50;40.10;;;;;;4331951;32;20155;-70
2021/07/28 08:07:54;;;;;;;4.12;2.45;;;25.50;39.00;;;;;;4342936;32;20150;-72
2021/07/28 08:10:20;;;;;;;3.25;2.20;;;25.40;38.90;;;;;;4355660;32;20150;-75
2021/07/28 08:12:46;;;;;;;3.87;2.40;;;26.20;39.00;;;;;;4331305;33;20159;-81
2021/07/28 08:15:12;;;;;;;5.00;2.70;;;25.60;38.90;;;;;;4340092;32;20642;-76
2021/07/28 08:17:39;;;;;;;4.78;2.30;;;26.50;38.60;;;;;;4319990;33;20075;-76
2021/07/28 08:20:06;;;;;;;2.95;2.25;;;26.80;37.00;;;;;;4348009;32;20105;-75
2021/07/28 08:22:32;;;;;;;4.07;2.15;;;26.80;36.70;;;;;;4343380;33;20094;-74
2021/07/28 08:24:59;;;;;;;2.97;2.12;;;26.70;37.90;;;;;;4344977;32;20187;-72
2021/07/28 08:27:27;;;;;;;3.67;2.42;;;25.90;40.00;;;;;;4318942;32;20129;-74
2021/07/28 08:29:54;;;;;;;4.03;2.28;;;25.60;40.00;;;;;;4352848;32;20078;-72
2021/07/28 08:32:20;;;;;;;5.10;2.15;;;25.70;39.60;;;;;;4344748;32;20074;-71
2021/07/28 08:34:47;;;;;;;3.00;2.28;;;25.70;39.90;;;;;;4347701;32;20097;-71
2021/07/28 08:37:13;;;;;;;4.37;2.67;;;25.50;40.70;;;;;;4343103;32;21132;-72
2021/07/28 08:39:39;;;;;;;3.65;2.65;;;25.80;39.70;;;;;;4343751;32;20090;-70
2021/07/28 08:42:06;;;;;;;4.65;2.42;;;26.20;38.40;;;;;;4343202;32;20084;-72
2021/07/28 08:44:37;;;;;;;4.07;2.30;;;26.40;38.40;;;;;;4350072;32;20087;-72
2021/07/28 08:47:05;;;;;;;4.28;2.40;;;27.10;37.20;;;;;;4322679;32;20085;-75
2021/07/28 08:49:33;;;;;;;6.30;2.70;;;27.60;36.10;;;;;;4337509;33;20144;-75
2021/07/28 08:51:59;;;;;;;2.80;2.28;;;26.20;37.70;;;;;;4333328;32;20160;-76
2021/07/28 08:54:25;;;;;;;4.53;2.70;;;26.20;38.30;;;;;;4316880;32;20109;-71
2021/07/28 08:56:52;;;;;;;5.45;3.28;;;26.30;37.70;;;;;;4331998;32;20137;-72
2021/07/28 08:59:28;;;;;;;3.60;2.40;;;26.10;38.80;;;;;;4332248;32;20082;-73
2021/07/28 09:01:55;;;;;;;;;;;25.30;40.00;;;;;;4333156;32;20084;-72
2021/07/28 09:04:21;;;;;;;;;;;25.40;40.10;;;;;;4343413;32;20000;-76
2021/07/28 09:06:47;;;;;;;3.95;2.60;;;25.40;41.00;;;;;;4343289;32;20058;-74
2021/07/28 09:09:14;;;;;;;4.82;2.65;;;25.80;39.80;;;;;;4333142;32;20549;-76
2021/07/28 09:12:00;;;;;;;7.18;3.12;;;26.00;38.90;;;;;;4346163;32;20489;-75
2021/07/28 09:14:30;;;;;;;4.15;2.55;;;25.50;39.90;;;;;;4335046;32;20506;-73
2021/07/28 09:17:20;;;;;;;5.22;2.80;;;25.40;40.10;;;;;;4330541;32;20077;-78
2021/07/28 09:19:50;;;;;;;3.90;2.92;;;25.30;39.90;;;;;;4334995;32;20134;-72
2021/07/28 09:22:20;;;;;;;5.43;2.58;;;25.20;40.70;;;;;;4335246;32;20132;-75
2021/07/28 09:25:07;;;;;;;9.15;2.65;;;25.10;40.10;;;;;;4320875;32;20109;-73
2021/07/28 09:27:40;;;;;;;7.37;3.03;;;25.20;40.20;;;;;;4336944;32;20094;-76
2021/07/28 09:30:08;;;;;;;4.18;2.50;;;25.40;39.70;;;;;;4331833;32;20050;-74
2021/07/28 09:32:35;;;;;;;6.57;3.25;;;25.50;39.50;;;;;;4321011;33;20077;-70
2021/07/28 09:35:02;;;;;;;3.78;2.40;;;26.00;38.10;;;;;;4357931;32;20086;-72
2021/07/28 09:37:28;;;;;;;4.32;2.55;;;26.00;37.80;;;;;;4349707;32;20588;-72
2021/07/28 09:39:54;;;;;;;4.05;2.42;;;25.80;37.80;;;;;;4334299;32;20169;-73
2021/07/28 09:42:28;;;;;;;6.82;2.60;;;25.90;38.10;;;;;;4333315;33;20070;-73
2021/07/28 09:44:55;;;;;;;10.35;3.12;;;26.60;37.50;;;;;;4331246;33;20185;-73
2021/07/28 09:47:24;;;;;;;3.95;2.67;;;27.30;35.80;;;;;;4334223;32;20055;-75
2021/07/28 09:50:02;;;;;;;5.50;2.45;;;26.60;36.40;;;;;;4324272;32;20099;-75
2021/07/28 09:52:35;;;;;;;5.12;2.58;;;26.50;35.50;;;;;;4339311;32;20075;-75
2021/07/28 09:55:29;;;;;;;6.20;2.72;;;26.70;34.80;;;;;;4330923;32;20102;-75
2021/07/28 09:57:58;;;;;;;5.28;2.70;;;27.50;35.00;;;;;;4349598;32;20074;-75
2021/07/28 10:00:28;;;;;;;5.20;3.45;;;27.30;33.10;;;;;;4327572;32;20118;-76
2021/07/28 10:03:01;;;;;;;4.93;2.45;;;27.40;34.20;;;;;;4340793;32;20074;-73
2021/07/28 10:05:28;;;;;;;5.12;2.80;;;27.00;35.70;;;;;;4324808;32;20453;-72
2021/07/28 10:07:59;;;;;;;3.50;2.55;;;26.50;37.30;;;;;;4314667;32;20094;-69
2021/07/28 10:10:26;;;;;;;6.03;2.75;;;26.30;37.10;;;;;;4330630;32;20070;-69
2021/07/28 10:12:52;;;;;;;4.65;2.60;;;26.60;36.60;;;;;;4314359;32;20079;-71
2021/07/28 10:15:19;;;;;;;4.35;2.65;;;26.70;35.70;;;;;;4318414;32;20114;-73
2021/07/28 10:17:45;;;;;;;3.20;2.47;;;26.40;36.10;;;;;;4334856;32;20513;-74
2021/07/28 10:20:13;;;;;;;5.57;2.50;;;26.60;36.30;;;;;;4323785;32;20112;-73
2021/07/28 10:22:41;;;;;;;3.97;2.60;;;26.40;36.70;;;;;;4327938;32;20058;-74
2021/07/28 10:25:15;;;;;;;5.72;2.80;;;26.20;37.30;;;;;;4329144;32;20097;-72
2021/07/28 10:27:47;;;;;;;5.25;2.75;;;26.70;36.50;;;;;;4341393;32;20511;-72
2021/07/28 10:30:14;;;;;;;3.25;2.53;;;26.00;36.50;;;;;;4326750;32;20452;-75
2021/07/28 10:32:41;;;;;;;5.87;2.75;;;25.80;37.50;;;;;;4342175;32;20058;-76
2021/07/28 10:35:27;;;;;;;3.28;2.50;;;26.10;37.80;;;;;;4313952;32;20144;-72
2021/07/28 10:37:59;;;;;;;6.12;2.50;;;26.10;37.10;;;;;;4318471;32;20111;-72
2021/07/28 10:40:29;;;;;;;4.65;2.47;;;26.20;36.70;;;;;;4334961;32;20066;-74
2021/07/28 10:42:55;;;;;;;5.80;2.78;;;25.90;37.40;;;;;;4347829;32;20077;-75
2021/07/28 10:45:24;;;;;;;5.72;3.00;;;26.70;37.00;;;;;;4335710;32;20062;-76
2021/07/28 10:47:54;;;;;;;4.07;2.50;;;26.40;35.10;;;;;;4326147;32;20078;-73
2021/07/28 10:50:26;;;;;;;5.37;2.80;;;26.70;35.40;;;;;;4338178;32;20527;-66
2021/07/28 10:52:58;;;;;;;4.65;2.35;;;26.30;35.50;;;;;;4369137;32;20109;-71
2021/07/28 10:55:25;;;;;;;5.07;2.60;;;26.20;36.50;;;;;;4336128;32;20113;-69
2021/07/28 10:57:54;;;;;;;4.00;2.92;;;27.00;35.70;;;;;;4360599;32;20554;-70
2021/07/28 11:00:39;;;;;;;5.32;2.95;;;26.90;34.70;;;;;;4347106;32;20508;-72
2021/07/28 11:03:11;;;;;;;6.30;2.85;;;26.40;34.80;;;;;;4355093;32;20166;-71
2021/07/28 11:06:04;;;;;;;3.95;2.60;;;26.00;35.40;;;;;;4347454;32;20160;-74
2021/07/28 11:08:31;;;;;;;4.22;2.47;;;26.50;35.40;;;;;;4325785;32;20507;-71
2021/07/28 11:10:58;;;;;;;5.22;2.50;;;26.80;34.40;;;;;;4335643;32;20090;-71
2021/07/28 11:13:27;;;;;;;9.45;2.97;;;26.50;34.70;;;;;;4346669;32;20121;-74
2021/07/28 11:16:05;;;;;;;9.10;3.12;;;26.30;34.60;;;;;;4345142;32;20070;-72
2021/07/28 11:18:39;;;;;;;8.18;3.17;;;26.50;34.50;;;;;;4350678;32;20082;-73
2021/07/28 11:21:13;;;;;;;8.88;3.12;;;26.00;35.00;;;;;;4333459;32;20178;-71
2021/07/28 11:23:45;;;;;;;3.55;2.62;;;25.60;36.70;;;;;;4334433;32;20070;-72
2021/07/28 11:26:14;;;;;;;4.87;2.92;;;25.20;36.60;;;;;;4341847;32;20193;-71
2021/07/28 11:28:45;;;;;;;4.50;2.80;;;25.30;37.50;;;;;;4336441;32;20074;-72
2021/07/28 11:31:12;;;;;;;4.82;2.65;;;25.20;38.70;;;;;;4330484;32;20089;-71
2021/07/28 11:33:39;;;;;;;3.58;2.47;;;25.40;39.00;;;;;;4321249;32;20078;-72
2021/07/28 11:36:06;;;;;;;6.15;2.85;;;25.30;40.80;;;;;;4327948;32;20085;-75
2021/07/28 11:38:35;;;;;;;6.72;3.35;;;25.40;42.00;;;;;;4330923;32;20465;-75
2021/07/28 11:41:03;;;;;;;6.72;3.55;;;24.90;42.70;;;;;;4331137;32;20090;-75
2021/07/28 11:43:36;;;;;;;5.18;2.90;;;24.90;44.70;;;;;;4348835;32;20603;-76
2021/07/28 11:46:17;;;;;;;5.70;3.08;;;25.40;43.30;;;;;;4348263;32;20171;-70
2021/07/28 11:48:50;;;;;;;6.62;3.40;;;25.80;41.50;;;;;;4351156;32;20205;-73
2021/07/28 11:51:32;;;;;;;3.90;2.50;;;26.50;41.20;;;;;;4356620;32;20102;-77
2021/07/28 11:54:16;;;;;;;3.53;2.30;;;27.00;37.30;;;;;;4330259;32;20170;-74
2021/07/28 11:56:53;;;;;;;4.25;2.60;;;27.20;36.30;;;;;;4348242;32;20108;-74
2021/07/28 11:59:23;;;;;;;7.87;2.70;;;26.70;35.20;;;;;;4338482;32;20568;-71
2021/07/28 12:01:51;;;;;;;2.70;2.15;;;26.30;36.30;;;;;;4350249;32;20166;-69
2021/07/28 12:04:29;;;;;;;4.30;2.45;;;26.30;33.20;;;;;;4347203;32;20071;-64
2021/07/28 12:06:59;;;;;;;2.83;2.22;;;26.40;34.30;;;;;;4336165;32;20090;-64
2021/07/28 12:09:28;;;;;;;10.07;3.22;;;26.70;33.70;;;;;;4324218;32;20544;-64
2021/07/28 12:12:23;;;;;;;2.97;2.40;;;27.30;33.70;;;;;;4323332;32;20097;-69
2021/07/28 12:14:51;;;;;;;4.53;2.55;;;27.30;32.90;;;;;;4331190;32;20449;-69
2021/07/28 12:17:17;;;;;;;6.05;2.58;;;27.60;30.90;;;;;;4323590;32;20078;-68
2021/07/28 12:20:10;;;;;;;4.22;2.80;;;28.00;30.00;;;;;;4347573;32;20077;-64
2021/07/28 12:22:41;;;;;;;4.53;2.72;;;26.70;33.10;;;;;;4337225;32;20062;-66
2021/07/28 12:25:24;;;;;;;3.35;2.37;;;26.60;33.20;;;;;;4335605;32;20098;-64
2021/07/28 12:28:02;;;;;;;4.65;2.70;;;27.30;33.80;;;;;;4325294;32;20066;-68
2021/07/28 12:30:29;;;;;;;4.40;2.67;;;27.00;34.60;;;;;;4372317;32;20073;-66
2021/07/28 12:33:15;;;;;;;6.85;2.75;;;27.30;34.40;;;;;;4323425;32;20090;-74
2021/07/28 12:35:58;;;;;;;4.35;2.62;;;26.60;36.00;;;;;;4335739;32;20090;-76
2021/07/28 12:38:28;;;;;;;6.12;2.70;;;27.00;35.40;;;;;;4335017;32;20062;-75
2021/07/28 12:41:06;;;;;;;3.50;2.72;;;27.70;34.00;;;;;;4345288;32;20519;-74
2021/07/28 12:43:36;;;;;;;5.68;2.60;;;27.70;34.40;;;;;;4346967;32;20090;-72
2021/07/28 12:46:04;;;;;;;2.85;2.25;;;27.50;35.10;;;;;;4335001;32;20091;-72
2021/07/28 12:48:31;;;;;;;3.97;2.85;;;27.70;34.30;;;;;;4347231;32;20186;-75
2021/07/28 12:51:00;;;;;;;4.68;2.85;;;27.30;34.10;;;;;;4333626;32;20162;-76
2021/07/28 12:53:27;;;;;;;6.20;3.08;;;26.90;35.00;;;;;;4348107;32;20084;-74
2021/07/28 12:55:53;;;;;;;4.43;3.00;;;26.50;35.80;;;;;;4347543;32;20101;-73
2021/07/28 12:58:20;;;;;;;4.90;2.65;;;26.50;35.50;;;;;;4347841;32;20087;-71
2021/07/28 13:00:46;;;;;;;4.20;2.50;;;27.00;35.20;;;;;;4335138;32;20081;-75